Latest Weather Observations for Laverton

IDV60801

Issued at 5:31 pm EST Tuesday 31 May 2016 (issued every 30 minutes, with the page automatically refreshed every 10 minutes)

About weather observations | Map of weather stations | Latest weather observations for VIC | Other Formats
Station Details ID: 087031 Name: LAVERTON RAAF Lat: -37.86 Lon: 144.76 Height: 20.1 m
Data from the previous 72 hours. | See also: Recent months at Laverton
Date/Time
EST
Temp
°C
App
Temp
°C
Dew
Point
Rel
Hum
%
Delta-T
°C
Wind Press
QNH
hPa
Press
MSL
hPa
Rain
since 9 am
mm
Dir
 
Spd
km/h
Gust
km/h
Spd
kts
Gust
kts
31/05:30pm 11.9 9.8 6.8 71 2.4 ESE 7 13 4 7 1028.0 1028.0 0.0
31/05:00pm 12.7 9.8 6.5 66 2.9 ESE 11 15 6 8 1027.7 1027.7 0.0
31/04:30pm 13.8 11.5 7.3 65 3.2 ESE 9 15 5 8 1027.6 1027.6 0.0
31/04:00pm 14.3 11.7 7.8 65 3.2 ESE 11 15 6 8 1027.5 1027.5 0.0
31/03:30pm 14.5 11.4 7.1 61 3.6 SE 13 19 7 10 1027.5 1027.5 0.0
31/03:00pm 14.5 11.4 7.3 62 3.5 ESE 13 19 7 10 1027.4 1027.4 0.0
31/02:30pm 14.2 10.9 7.9 66 3.1 SE 15 19 8 10 1027.6 1027.6 0.0
31/02:00pm 14.2 11.1 7.3 63 3.4 ESE 13 19 7 10 1027.8 1027.8 0.0
31/01:30pm 14.3 11.2 7.1 62 3.5 SE 13 17 7 9 1028.2 1028.2 0.0
31/01:00pm 14.0 11.2 6.8 62 3.5 ESE 11 15 6 8 1028.5 1028.5 0.0
31/12:30pm 13.7 10.9 6.8 63 3.3 ESE 11 15 6 8 1028.8 1028.8 0.0
31/12:00pm 13.8 10.8 6.2 60 3.6 ENE 11 15 6 8 1029.2 1029.2 0.0
31/11:30am 12.7 10.1 6.1 64 3.1 NE 9 15 5 8 1029.8 1029.8 0.0
31/11:00am 11.8 9.6 6.1 68 2.7 NE 7 9 4 5 1030.3 1030.3 0.0
31/10:30am 10.3 8.1 5.5 72 2.2 NNW 6 9 3 5 1030.7 1030.7 0.0
31/10:00am 9.0 7.1 4.8 75 1.9 NNE 4 6 2 3 1030.8 1030.8 0.0
31/09:30am 7.0 4.5 4.0 81 1.3 NNE 6 9 3 5 1030.8 1030.8 0.0
31/09:00am 5.1 2.4 3.9 92 0.5 NNE 7 7 4 4 1030.8 1030.8 0.0
31/08:30am 2.0 -0.9 1.7 98 0.1 N 6 9 3 5 1030.8 1030.8 0.0
31/08:00am 1.1 -1.9 0.8 98 0.1 NNW 6 7 3 4 1030.4 1030.4 0.0
31/07:30am 0.8 -2.9 0.2 96 0.2 N 9 11 5 6 1030.2 1030.2 0.0
31/07:00am 2.0 -0.9 1.6 97 0.2 NNE 6 7 3 4 1029.7 1029.7 0.0
31/06:30am 2.0 -1.4 1.6 97 0.2 NNE 9 11 5 6 1029.5 1029.5 0.0
31/06:00am 1.8 -1.3 1.5 98 0.1 NNE 7 9 4 5 1029.3 1029.3 0.0
31/05:30am 1.7 -1.4 1.3 97 0.2 NNE 7 9 4 5 1029.1 1029.1 0.0
31/05:00am 1.5 -1.5 0.9 96 0.2 NNE 6 7 3 4 1029.0 1029.0 0.0
31/04:30am 2.7 -0.7 2.1 96 0.2 NNE 9 9 5 5 1028.8 1028.8 0.0
31/04:00am 2.2 -0.7 1.5 95 0.3 N 6 7 3 4 1028.7 1028.7 0.0
31/03:30am 2.8 -0.6 1.9 94 0.4 N 9 11 5 6 1028.7 1028.7 0.0
31/03:00am 2.7 -0.2 1.5 92 0.5 N 6 7 3 4 1028.7 1028.7 0.0
31/02:30am 3.6 -0.1 2.4 92 0.5 N 11 13 6 7 1028.7 1028.7 0.0
31/02:00am 3.6 -0.1 2.4 92 0.5 NNE 11 13 6 7 1028.6 1028.6 0.0
31/01:30am 3.5 -0.1 2.8 95 0.3 NNE 11 13 6 7 1028.7 1028.7 0.0
31/01:00am 2.7 -0.3 2.0 95 0.3 NNW 7 7 4 4 1028.6 1028.6 0.0
31/12:30am 2.8 0.0 1.8 93 0.4 NNW 6 7 3 4 1028.6 1028.6 0.0
31/12:00am 4.3 1.5 3.0 91 0.5 NNW 7 9 4 5 1028.7 1028.7 0.0
 
Date/Time
EST
Temp
°C
App
Temp
°C
Dew
Point
Rel
Hum
%
Delta-T
°C
Wind Press
QNH
hPa
Press
MSL
hPa
Rain
since 9 am
mm
Dir
 
Spd
km/h
Gust
km/h
Spd
kts
Gust
kts
30/11:30pm 4.5 1.6 2.8 89 0.7 NNW 7 7 4 4 1028.7 1028.7 0.0
30/11:00pm 4.4 1.6 2.9 90 0.6 NW 7 9 4 5 1028.6 1028.6 0.0
30/10:30pm 5.0 3.2 3.5 90 0.6 NW 2 6 1 3 1028.5 1028.5 0.0
30/10:00pm 4.6 1.1 3.4 92 0.5 NW 11 13 6 7 1028.3 1028.3 0.0
30/09:30pm 4.8 0.6 3.6 92 0.5 NW 15 17 8 9 1028.1 1028.1 0.0
30/09:00pm 5.1 1.7 4.1 93 0.4 NNW 11 13 6 7 1028.1 1028.1 0.0
30/08:30pm 5.7 2.0 4.3 91 0.6 NNW 13 15 7 8 1027.9 1027.9 0.0
30/08:00pm 6.1 3.2 4.4 89 0.7 ENE 9 11 5 6 1027.7 1027.7 0.0
30/07:30pm 8.3 6.0 5.6 83 1.2 E 7 9 4 5 1027.5 1027.5 0.0
30/07:00pm 9.3 7.2 5.9 79 1.5 SE 6 7 3 4 1027.2 1027.2 0.0
30/06:30pm 10.3 7.7 6.1 75 1.9 SSE 9 11 5 6 1027.0 1027.0 0.0
30/06:00pm 10.5 8.2 5.9 73 2.1 SE 7 9 4 5 1026.8 1026.8 0.0
30/05:30pm 10.5 8.1 5.3 70 2.4 SE 7 9 4 5 1026.7 1026.7 0.0
30/05:00pm 11.0 8.2 5.3 68 2.6 SE 9 15 5 8 1026.4 1026.4 0.0
30/04:30pm 12.1 8.5 5.0 62 3.3 SE 13 17 7 9 1026.1 1026.1 0.0
30/04:00pm 12.7 9.0 4.7 58 3.6 SE 13 19 7 10 1025.9 1025.9 0.0
30/03:30pm 13.2 9.9 4.6 56 4.0 SE 11 17 6 9 1025.8 1025.8 0.0
30/03:00pm 13.5 10.3 4.9 56 4.0 SE 11 17 6 9 1025.8 1025.8 0.0
30/02:30pm 13.4 9.7 4.3 54 4.2 ESE 13 19 7 10 1025.7 1025.7 0.0
30/02:00pm 13.8 10.5 4.7 54 4.2 E 11 17 6 9 1025.8 1025.8 0.0
30/01:30pm 14.0 11.0 4.0 51 4.6 ENE 9 13 5 7 1026.0 1026.0 0.0
30/01:00pm 13.4 10.3 3.5 51 4.4 ENE 9 20 5 11 1026.2 1026.2 0.0
30/12:30pm 13.2 9.3 3.6 52 4.3 ENE 13 22 7 12 1026.3 1026.3 0.0
30/12:00pm 13.3 9.9 4.2 54 4.1 ENE 11 15 6 8 1026.7 1026.7 0.0
30/11:30am 12.9 9.8 3.8 54 4.1 E 9 15 5 8 1026.9 1026.9 0.0
30/11:00am 12.6 9.4 3.3 53 4.1 NNE 9 15 5 8 1027.3 1027.3 0.0
30/10:30am 12.0 9.5 4.7 61 3.3 N 7 11 4 6 1027.5 1027.5 0.0
30/10:00am 10.6 7.7 4.9 68 2.6 N 9 13 5 7 1027.4 1027.4 0.0
30/09:30am 9.5 7.2 4.7 72 2.1 N 6 11 3 6 1027.3 1027.3 0.0
30/09:00am 7.8 4.9 4.7 81 1.4 NNW 9 13 5 7 1027.3 1027.3 0.0
30/08:30am 7.3 5.7 4.4 82 1.3 N 2 9 1 5 1027.1 1027.1 0.0
30/08:00am 6.9 5.2 4.0 82 1.2 N 2 9 1 5 1026.8 1026.8 0.0
30/07:30am 6.7 4.0 3.5 80 1.4 N 7 9 4 5 1026.5 1026.5 0.0
30/07:00am 6.6 4.1 3.8 82 1.2 N 6 11 3 6 1026.2 1026.2 0.0
30/06:30am 6.5 3.9 4.0 84 1.1 NE 7 9 4 5 1025.9 1025.9 0.0
30/06:00am 6.5 4.1 4.2 85 1.0 NNE 6 9 3 5 1025.6 1025.6 0.0
30/05:30am 6.5 5.3 4.7 88 0.8 CALM 0 7 0 4 1025.3 1025.3 0.0
30/05:00am 6.5 5.3 4.5 87 0.9 CALM 0 0 0 0 1024.9 1024.9 0.0
30/04:30am 6.6 5.3 4.1 84 1.1 CALM 0 6 0 3 1024.6 1024.6 0.0
30/04:00am 6.5 4.4 4.0 84 1.1 ENE 4 9 2 5 1024.5 1024.5 0.0
30/03:30am 6.9 3.9 3.9 81 1.3 NNW 9 13 5 7 1024.3 1024.3 0.0
30/03:00am 6.9 3.5 4.0 82 1.2 NW 11 15 6 8 1024.4 1024.4 0.0
30/02:30am 6.7 4.0 3.9 82 1.2 NNW 7 11 4 6 1024.3 1024.3 0.0
30/02:00am 6.6 2.7 3.6 81 1.3 NW 13 15 7 8 1024.2 1024.2 0.0
30/01:30am 6.3 2.5 3.8 84 1.1 NNW 13 17 7 9 1024.0 1024.0 0.0
30/01:00am 5.8 3.1 3.6 86 0.9 NNW 7 9 4 5 1023.9 1023.9 0.0
30/12:30am 5.4 1.5 3.6 88 0.8 NW 13 17 7 9 1023.8 1023.8 0.0
30/12:00am 5.2 1.2 2.9 85 0.9 NW 13 13 7 7 1023.7 1023.7 0.0
 
Date/Time
EST
Temp
°C
App
Temp
°C
Dew
Point
Rel
Hum
%
Delta-T
°C
Wind Press
QNH
hPa
Press
MSL
hPa
Rain
since 9 am
mm
Dir
 
Spd
km/h
Gust
km/h
Spd
kts
Gust
kts
29/11:30pm 6.8 3.7 3.4 79 1.4 WNW 9 9 5 5 1023.6 1023.6 0.0
29/11:00pm 7.4 4.7 3.5 76 1.7 WNW 7 9 4 5 1023.5 1023.5 0.0
29/10:30pm 8.3 5.6 3.8 73 1.9 W 7 9 4 5 1023.4 1023.4 0.0
29/10:00pm 8.7 5.3 3.9 72 2.1 NW 11 13 6 7 1023.3 1023.3 0.0
29/09:30pm 8.8 5.7 3.6 70 2.2 NW 9 13 5 7 1023.2 1023.2 0.0
29/09:00pm 9.3 5.9 3.9 69 2.3 WNW 11 13 6 7 1023.2 1023.2 0.0
29/08:30pm 9.9 6.9 4.3 68 2.5 WNW 9 11 5 6 1023.1 1023.1 0.0
29/08:00pm 10.3 7.7 4.2 66 2.7 NW 7 9 4 5 1022.9 1022.9 0.0
29/07:30pm 10.8 8.2 4.3 64 2.9 WNW 7 9 4 5 1022.6 1022.6 0.0
29/07:00pm 11.2 8.2 4.2 62 3.1 WNW 9 11 5 6 1022.3 1022.3 0.0
29/06:30pm 11.1 8.6 4.6 64 2.9 WNW 7 9 4 5 1022.0 1022.0 0.0
29/06:00pm 11.7 9.1 3.2 56 3.7 W 6 7 3 4 1021.8 1021.8 0.0
29/05:30pm 11.8 8.7 3.8 58 3.6 SSW 9 13 5 7 1021.5 1021.5 0.0
29/05:00pm 12.1 8.6 3.6 56 3.8 SW 11 17 6 9 1021.3 1021.3 0.0
29/04:30pm 12.4 9.2 2.8 52 4.2 WSW 9 13 5 7 1021.2 1021.2 0.0
29/04:00pm 12.6 9.7 4.6 58 3.6 SW 9 15 5 8 1021.1 1021.1 0.0
29/03:30pm 12.8 9.8 4.0 55 4.0 SW 9 15 5 8 1020.9 1020.9 0.0
29/03:00pm 13.0 9.4 4.9 58 3.7 WNW 13 19 7 10 1020.8 1020.8 0.0
29/02:30pm 12.6 8.1 4.3 57 3.8 W 17 22 9 12 1020.8 1020.8 0.0
29/02:00pm 12.4 7.7 5.3 62 3.3 WSW 19 26 10 14 1020.7 1020.7 0.0
29/01:30pm 12.5 8.6 5.2 61 3.4 WSW 15 24 8 13 1020.7 1020.7 0.0
29/01:00pm 12.4 8.0 4.9 60 3.4 WSW 17 24 9 13 1020.8 1020.8 0.0
29/12:30pm 12.8 8.4 4.5 57 3.8 WSW 17 22 9 12 1020.7 1020.7 0.0
29/12:00pm 12.9 8.5 4.8 58 3.7 W 17 24 9 13 1020.7 1020.7 0.0
29/11:30am 12.2 7.8 4.7 60 3.4 W 17 24 9 13 1021.0 1021.0 0.0
29/11:00am 11.8 7.3 4.1 59 3.4 W 17 24 9 13 1021.1 1021.1 0.0
29/10:30am 11.7 6.7 4.7 62 3.2 W 20 26 11 14 1020.9 1020.9 0.0
29/10:00am 11.5 6.5 4.5 62 3.2 W 20 28 11 15 1020.7 1020.7 0.0
29/09:30am 11.2 6.8 4.9 65 2.9 W 17 26 9 14 1020.3 1020.3 0.0
29/09:00am 11.1 6.7 4.6 64 2.9 W 17 24 9 13 1020.0 1020.0 0.4
29/08:30am 10.1 6.1 5.1 71 2.3 WNW 15 20 8 11 1019.7 1019.7 0.4
29/08:00am 9.9 5.9 4.9 71 2.2 WNW 15 20 8 11 1019.4 1019.4 0.4
29/07:30am 9.9 5.9 4.7 70 2.3 W 15 20 8 11 1019.2 1019.2 0.4
29/07:00am 9.7 5.7 4.7 71 2.2 W 15 20 8 11 1018.9 1018.9 0.4
29/06:30am 9.9 5.5 4.9 71 2.2 W 17 22 9 12 1018.7 1018.7 0.4
29/06:00am 9.9 5.5 4.7 70 2.3 W 17 24 9 13 1018.3 1018.3 0.4
29/05:30am 10.0 5.6 4.8 70 2.3 W 17 24 9 13 1018.2 1018.2 0.4
29/05:00am 9.8 5.0 4.8 71 2.2 W 19 24 10 13 1018.0 1018.0 0.4
29/04:30am 10.0 5.2 4.6 69 2.4 W 19 24 10 13 1017.9 1017.9 0.4
29/04:00am 9.9 5.1 4.5 69 2.4 W 19 24 10 13 1017.6 1017.6 0.4
29/03:30am 9.7 4.9 4.9 72 2.2 W 19 28 10 15 1017.6 1017.6 0.4
29/03:00am 9.9 4.9 4.7 70 2.3 W 20 28 11 15 1017.5 1017.5 0.4
29/02:30am 10.0 5.2 4.4 68 2.5 W 19 24 10 13 1017.4 1017.4 0.4
29/02:00am 9.9 5.5 4.7 70 2.3 W 17 24 9 13 1017.1 1017.1 0.4
29/01:30am 10.0 5.2 5.4 73 2.1 W 20 32 11 17 1016.8 1016.8 0.4
29/01:00am 10.0 5.2 5.6 74 2.0 W 20 30 11 16 1016.7 1016.7 0.4
29/12:30am 10.2 5.4 5.6 73 2.1 W 20 28 11 15 1016.8 1016.8 0.4
29/12:00am 10.1 5.9 5.7 74 2.0 W 17 22 9 12 1016.9 1016.9 0.4
 
Date/Time
EST
Temp
°C
App
Temp
°C
Dew
Point
Rel
Hum
%
Delta-T
°C
Wind Press
QNH
hPa
Press
MSL
hPa
Rain
since 9 am
mm
Dir
 
Spd
km/h
Gust
km/h
Spd
kts
Gust
kts
28/11:30pm 10.1 6.0 6.1 76 1.9 W 17 20 9 11 1016.9 1016.9 0.4
28/11:00pm 9.9 5.5 6.6 80 1.5 W 19 26 10 14 1016.8 1016.8 0.4
28/10:30pm 10.0 6.2 6.0 76 1.8 W 15 22 8 12 1016.6 1016.6 0.4
28/10:00pm 10.1 6.5 6.8 80 1.5 W 15 19 8 10 1016.8 1016.8 0.4
28/09:30pm 10.3 6.7 6.6 78 1.7 WSW 15 22 8 12 1016.8 1016.8 0.4
28/09:00pm 10.3 6.3 6.5 77 1.8 WSW 17 20 9 11 1016.7 1016.7 0.4
28/08:30pm 10.4 5.8 6.7 78 1.7 WSW 20 32 11 17 1016.6 1016.6 0.4
28/08:00pm 10.7 6.1 6.6 76 1.9 WSW 20 26 11 14 1016.2 1016.2 0.4
28/07:30pm 10.8 5.8 6.6 75 2.0 WSW 22 30 12 16 1015.9 1015.9 0.4
28/07:00pm 11.0 7.4 6.9 76 1.9 WSW 15 24 8 13 1015.7 1015.7 0.4
28/06:30pm 11.0 7.7 6.6 74 2.1 WSW 13 20 7 11 1015.2 1015.2 0.4
28/06:00pm 11.4 7.2 5.7 68 2.6 WSW 17 24 9 13 1014.7 1014.7 0.4

Other Formats:

Comma delimited format used in spreadsheet applications
http://www.bom.gov.au/fwo/IDV60801/IDV60801.94865.axf

JavaScript Object Notation format (JSON) in row-major order
http://www.bom.gov.au/fwo/IDV60801/IDV60801.94865.json